Time;durP1;ratioP1;P1;durP2;ratioP2;P2;SDS_P1;SDS_P2;PMS_P1;PMS_P2;Temp;Humidity;BMP_temperature;BMP_pressure;BME280_temperature;BME280_humidity;BME280_pressure;Samples;Min_cycle;Max_cycle;Signal;HPM_P1;HPM_P2
2022/05/27 00:01:38;;;;;;;8.00;4.37;;;;;;;20.13;100.00;62956.06;5077413;28;20192;-74
2022/05/27 00:04:05;;;;;;;7.97;5.10;;;;;;;19.44;100.00;62882.00;5094798;28;20253;-73
2022/05/27 00:06:33;;;;;;;6.70;5.03;;;;;;;19.81;100.00;62922.00;5094516;28;20195;-76
2022/05/27 00:09:00;;;;;;;8.33;4.90;;;;;;;19.73;100.00;62915.94;5094693;28;20200;-74
2022/05/27 00:11:28;;;;;;;8.23;4.80;;;;;;;19.53;100.00;62891.19;5094202;28;20708;-73
2022/05/27 00:13:56;;;;;;;6.67;4.97;;;;;;;19.60;100.00;62898.78;5075980;28;20195;-74
2022/05/27 00:16:25;;;;;;;5.53;4.50;;;;;;;19.24;100.00;62863.50;5094275;28;20257;-74
2022/05/27 00:18:52;;;;;;;8.17;5.10;;;;;;;19.45;100.00;62879.97;5094130;28;20286;-74
2022/05/27 00:21:19;;;;;;;9.97;5.33;;;;;;;19.49;100.00;62889.47;5093747;28;20208;-76
2022/05/27 00:23:46;;;;;;;8.07;5.33;;;;;;;19.36;100.00;62873.91;5075971;28;20199;-74
2022/05/27 00:26:13;;;;;;;7.17;5.43;;;;;;;18.37;100.00;62764.38;5093928;28;20740;-77
2022/05/27 00:28:40;;;;;;;9.23;5.93;;;;;;;18.98;100.00;62830.25;5093943;28;20200;-73
2022/05/27 00:31:07;;;;;;;10.23;6.07;;;;;;;19.40;100.00;62879.75;5093978;28;20196;-74
2022/05/27 00:33:39;;;;;;;12.30;6.80;;;;;;;19.38;100.00;62878.66;5093960;28;20195;-74
2022/05/27 00:36:08;;;;;;;14.50;6.93;;;;;;;19.14;100.00;62852.72;5093775;28;20265;-73
2022/05/27 00:38:35;;;;;;;7.83;5.80;;;;;;;19.08;100.00;62841.06;5093741;28;20741;-76
2022/05/27 00:41:04;;;;;;;8.60;6.20;;;;;;;19.05;100.00;62842.44;5093334;28;20714;-75
2022/05/27 00:43:31;;;;;;;7.47;6.50;;;;;;;18.93;100.00;62824.88;5093532;28;20196;-73
2022/05/27 00:46:02;;;;;;;8.13;6.13;;;;;;;18.80;100.00;62810.81;5093806;28;20638;-74
2022/05/27 00:48:29;;;;;;;10.57;6.23;;;;;;;18.60;100.00;62789.22;5093685;28;20199;-75
2022/05/27 00:50:58;;;;;;;9.83;6.00;;;;;;;18.94;100.00;62828.53;5093911;28;20635;-73
2022/05/27 00:53:34;;;;;;;11.63;6.80;;;;;;;19.00;100.00;62832.41;5093329;28;20250;-73
2022/05/27 00:56:03;;;;;;;12.17;6.53;;;;;;;18.57;100.00;62786.00;5093451;28;20195;-75
2022/05/27 00:58:33;;;;;;;11.17;6.60;;;;;;;18.76;100.00;62811.66;5093183;28;20195;-75
2022/05/27 01:01:01;;;;;;;10.50;7.23;;;;;;;17.91;100.00;62714.75;5093353;28;20582;-74
2022/05/27 01:03:30;;;;;;;7.40;6.57;;;;;;;18.40;100.00;62768.16;5093242;28;20195;-74
2022/05/27 01:05:58;;;;;;;11.33;6.33;;;;;;;18.40;100.00;62772.78;5093311;28;20225;-73
2022/05/27 01:08:28;;;;;;;10.17;6.73;;;;;;;18.45;100.00;62775.63;5093233;28;20257;-74
2022/05/27 01:11:04;;;;;;;9.97;7.23;;;;;;;18.42;100.00;62769.78;5093049;28;20265;-76
2022/05/27 01:13:43;;;;;;;8.70;6.80;;;;;;;17.97;100.00;62718.66;5093123;28;20227;-73
2022/05/27 01:16:22;;;;;;;11.77;7.60;;;;;;;18.19;100.00;62744.97;5093273;28;20206;-74
2022/05/27 01:22:08;;;;;;;11.13;8.37;;;;;;;18.09;100.00;62739.31;5099515;28;20252;-74
2022/05/27 01:25:03;;;;;;;19.33;9.00;;;;;;;18.11;100.00;62736.31;5092949;28;20203;-74
2022/05/27 01:28:20;;;;;;;14.23;8.17;;;;;;;18.14;100.00;62739.56;5092889;28;20230;-74
2022/05/27 01:31:01;;;;;;;14.17;8.47;;;;;;;17.84;100.00;62707.19;5093107;28;20632;-72
2022/05/27 01:33:37;;;;;;;14.10;8.27;;;;;;;17.73;100.00;62696.41;5092925;28;20296;-75
2022/05/27 01:36:10;;;;;;;14.27;8.60;;;;;;;17.90;100.00;62716.25;5093272;28;20219;-74
2022/05/27 01:38:43;;;;;;;13.83;9.13;;;;;;;17.81;100.00;62709.13;5093104;28;20582;-75
2022/05/27 01:41:17;;;;;;;13.67;8.93;;;;;;;17.76;100.00;62703.72;5091646;28;20256;-74
2022/05/27 01:43:50;;;;;;;13.37;8.80;;;;;;;17.70;100.00;62695.22;5092755;28;20252;-74
2022/05/27 01:46:24;;;;;;;18.03;8.73;;;;;;;16.92;100.00;62614.19;5092798;28;20195;-74
2022/05/27 01:49:03;;;;;;;13.03;9.63;;;;;;;16.96;100.00;62615.94;5092571;28;20253;-73
2022/05/27 01:51:37;;;;;;;13.53;8.60;;;;;;;17.62;100.00;62687.13;5092156;28;20231;-75
2022/05/27 01:54:11;;;;;;;14.13;8.77;;;;;;;17.65;100.00;62690.34;5092441;28;20256;-76
2022/05/27 01:56:43;;;;;;;11.70;8.43;;;;;;;17.52;100.00;62678.38;5092539;28;20559;-74
2022/05/27 01:59:15;;;;;;;14.37;9.30;;;;;;;17.60;100.00;62684.97;5092625;28;20227;-74
2022/05/27 02:01:49;;;;;;;15.47;8.83;;;;;;;17.62;100.00;62684.53;5092470;28;20263;-73
2022/05/27 02:04:23;;;;;;;11.53;8.47;;;;;;;17.60;100.00;62682.38;5092094;28;20227;-74
2022/05/27 02:06:57;;;;;;;11.20;7.80;;;;;;;17.68;100.00;62688.44;5092145;28;20225;-72
2022/05/27 02:09:29;;;;;;;16.27;8.37;;;;;;;17.72;100.00;62694.78;5091982;28;20198;-75
2022/05/27 02:11:59;;;;;;;11.07;8.17;;;;;;;17.67;100.00;62692.50;5092318;28;20235;-73
2022/05/27 02:14:36;;;;;;;14.10;8.93;;;;;;;17.79;100.00;62704.38;5092150;28;20260;-73
2022/05/27 02:17:09;;;;;;;14.63;9.13;;;;;;;17.69;100.00;62694.13;5091959;28;20192;-76
2022/05/27 02:19:42;;;;;;;17.87;8.90;;;;;;;16.89;100.00;62608.91;5092458;28;20284;-73
2022/05/27 02:22:14;;;;;;;12.27;8.47;;;;;;;17.65;100.00;62687.22;5092879;28;20203;-73
2022/05/27 02:24:45;;;;;;;11.07;8.20;;;;;;;17.35;100.00;62660.53;5092700;28;20202;-72
2022/05/27 02:27:17;;;;;;;13.60;8.80;;;;;;;17.54;100.00;62675.38;5092082;28;20203;-73
2022/05/27 02:29:47;;;;;;;13.87;8.37;;;;;;;17.57;100.00;62678.59;5092575;28;20195;-72
2022/05/27 02:32:22;;;;;;;13.20;9.30;;;;;;;17.50;100.00;62673.63;5092015;28;20226;-73
2022/05/27 02:35:08;;;;;;;11.67;7.80;;;;;;;17.66;100.00;62688.84;5092187;28;20203;-73
2022/05/27 02:37:39;;;;;;;13.10;8.27;;;;;;;17.13;100.00;62631.66;5091709;28;20199;-72
2022/05/27 02:40:09;;;;;;;12.50;8.60;;;;;;;17.64;100.00;62688.72;5091676;28;20291;-74
2022/05/27 02:42:46;;;;;;;12.53;8.13;;;;;;;17.55;100.00;62679.56;5091487;28;20725;-76
2022/05/27 02:45:21;;;;;;;13.63;8.77;;;;;;;17.11;100.00;62626.94;5091757;28;20195;-73
2022/05/27 02:47:56;;;;;;;9.23;7.33;;;;;;;17.46;100.00;62667.25;5091662;28;20260;-74
2022/05/27 02:50:32;;;;;;;13.07;8.53;;;;;;;17.21;100.00;62645.44;5091461;28;20676;-74
2022/05/27 02:53:09;;;;;;;15.67;8.43;;;;;;;17.51;100.00;62675.25;5091836;28;20227;-74
2022/05/27 02:55:49;;;;;;;13.17;8.73;;;;;;;17.52;100.00;62673.75;5091496;28;20203;-73
2022/05/27 02:58:16;;;;;;;12.47;8.70;;;;;;;17.50;100.00;62676.75;5091691;28;20623;-73
2022/05/27 03:00:46;;;;;;;15.30;9.43;;;;;;;17.36;100.00;62661.63;5091630;28;20222;-73
2022/05/27 03:03:14;;;;;;;11.70;9.07;;;;;;;17.41;100.00;62667.00;5091915;28;20223;-73
2022/05/27 03:05:52;;;;;;;19.60;8.47;;;;;;;17.50;100.00;62674.19;5091395;28;20192;-75
2022/05/27 03:08:25;;;;;;;10.13;8.10;;;;;;;17.54;100.00;62681.06;5091472;28;20203;-74
2022/05/27 03:11:07;;;;;;;10.80;7.53;;;;;;;17.53;100.00;62674.81;5091495;28;20261;-73
2022/05/27 03:13:49;;;;;;;11.03;7.47;;;;;;;16.97;100.00;62609.28;5091712;28;20237;-74
2022/05/27 03:16:27;;;;;;;15.57;7.50;;;;;;;17.21;100.00;62640.28;5091641;28;20204;-75
2022/05/27 03:19:17;;;;;;;12.83;8.07;;;;;;;17.28;100.00;62652.47;5091453;28;20278;-73
2022/05/27 03:21:54;;;;;;;13.63;7.10;;;;;;;17.30;100.00;62650.00;5091617;28;20208;-73
2022/05/27 03:24:32;;;;;;;14.37;7.53;;;;;;;17.37;100.00;62657.56;5098474;28;20191;-75
2022/05/27 03:27:06;;;;;;;13.80;7.00;;;;;;;17.48;100.00;62669.41;5091086;28;20268;-75
2022/05/27 03:29:42;;;;;;;8.53;6.37;;;;;;;17.55;100.00;62676.97;5091415;28;20203;-75
2022/05/27 03:32:17;;;;;;;14.20;7.07;;;;;;;17.71;100.00;62699.41;5091759;28;20199;-76
2022/05/27 03:34:51;;;;;;;15.30;6.40;;;;;;;17.87;100.00;62716.13;5095555;28;20264;-75
2022/05/27 03:37:26;;;;;;;13.47;6.67;;;;;;;17.75;100.00;62702.63;5094954;28;20269;-74
2022/05/27 03:40:02;;;;;;;15.57;7.23;;;;;;;17.67;100.00;62689.94;5095279;28;20218;-76
2022/05/27 03:42:31;;;;;;;11.57;6.83;;;;;;;17.73;100.00;62695.34;5094670;28;20239;-74
2022/05/27 03:45:03;;;;;;;10.70;6.60;;;;;;;17.84;100.00;62707.19;5095493;28;20199;-76
2022/05/27 03:47:29;;;;;;;10.53;7.33;;;;;;;17.49;100.00;62669.97;5094978;28;20261;-76
2022/05/27 03:49:59;;;;;;;16.50;7.60;;;;;;;18.02;100.00;62726.59;5094650;28;20227;-73
2022/05/27 03:52:32;;;;;;;19.97;6.73;;;;;;;18.19;100.00;62744.97;5094633;28;20240;-73
2022/05/27 03:54:59;;;;;;;14.13;6.60;;;;;;;18.22;100.00;62748.19;5094704;28;20248;-73
2022/05/27 03:57:26;;;;;;;10.53;6.30;;;;;;;17.95;100.00;62724.22;5094727;28;20385;-75
2022/05/27 03:59:55;;;;;;;11.07;5.73;;;;;;;18.13;100.00;62738.50;5094908;28;20282;-76
2022/05/27 04:02:22;;;;;;;18.23;6.30;;;;;;;18.44;100.00;62774.53;5095215;28;20282;-75
2022/05/27 04:04:52;;;;;;;16.37;5.67;;;;;;;18.43;100.00;62776.03;5095648;28;20268;-74
2022/05/27 04:07:21;;;;;;;10.13;5.73;;;;;;;18.50;100.00;62783.59;5095141;28;20192;-74
2022/05/27 04:09:47;;;;;;;11.30;5.40;;;;;;;18.54;100.00;62782.75;5077437;28;20200;-73
2022/05/27 04:12:15;;;;;;;6.57;5.27;;;;;;;18.62;100.00;62796.56;5095731;28;20260;-74
2022/05/27 04:14:43;;;;;;;8.80;5.13;;;;;;;18.55;100.00;62784.38;5094435;28;20230;-74
2022/05/27 04:19:54;;;;;;;7.20;5.10;;;;;;;18.75;100.00;62805.44;5094470;28;20198;-75
2022/05/27 04:22:22;;;;;;;8.63;4.97;;;;;;;18.87;100.00;62818.41;5094032;28;20654;-75
2022/05/27 04:24:49;;;;;;;8.57;4.73;;;;;;;18.99;100.00;62830.81;5094472;28;20642;-74
2022/05/27 04:27:18;;;;;;;9.33;5.30;;;;;;;18.87;100.00;62823.56;5093863;28;20750;-74
2022/05/27 04:29:48;;;;;;;13.77;6.23;;;;;;;19.25;100.00;62859.44;5093904;28;20195;-73
2022/05/27 04:32:16;;;;;;;12.63;6.20;;;;;;;19.32;100.00;62869.56;5093713;28;20196;-75
2022/05/27 04:34:43;;;;;;;11.20;5.33;;;;;;;19.21;100.00;62852.00;5093970;28;20200;-74
2022/05/27 04:37:13;;;;;;;16.93;5.93;;;;;;;19.21;100.00;62860.28;5093719;28;20698;-72
2022/05/27 04:39:41;;;;;;;11.97;5.30;;;;;;;19.55;100.00;62893.38;5093861;28;20211;-72
2022/05/27 04:42:09;;;;;;;7.73;5.30;;;;;;;19.82;100.00;62922.56;5093659;28;20235;-72
2022/05/27 04:44:36;;;;;;;12.03;6.10;;;;;;;19.93;100.00;62931.84;5093086;28;20202;-73
2022/05/27 04:47:05;;;;;;;11.93;6.37;;;;;;;20.09;100.00;62954.31;5075660;28;20204;-74
2022/05/27 04:52:27;;;;;;;10.10;6.27;;;;;;;20.23;100.00;62966.88;5045101;28;20202;-72
2022/05/27 04:54:57;;;;;;;15.13;7.27;;;;;;;19.87;100.00;62920.19;5093323;28;20195;-74
2022/05/27 04:57:28;;;;;;;9.87;6.90;;;;;;;19.97;100.00;62933.59;5093405;28;20231;-74
2022/05/27 04:59:56;;;;;;;10.10;7.03;;;;;;;19.94;100.00;62932.94;5093318;28;20200;-74
2022/05/27 05:02:25;;;;;;;16.17;7.40;;;;;;;19.91;100.00;62932.81;5093060;28;20278;-74
2022/05/27 05:04:53;;;;;;;13.07;8.33;;;;;;;20.01;100.00;62940.50;5093582;28;20327;-75
2022/05/27 05:07:40;;;;;;;16.67;7.87;;;;;;;20.24;100.00;62965.38;5090203;28;20211;-73
2022/05/27 05:10:12;;;;;;;15.43;7.53;;;;;;;20.50;100.00;62996.09;5093266;28;20571;-73
2022/05/27 05:12:40;;;;;;;13.23;7.23;;;;;;;20.63;100.00;63012.75;5092761;28;20755;-75
2022/05/27 05:15:08;;;;;;;13.63;7.17;;;;;;;20.70;100.00;63015.13;5093326;28;20203;-73
2022/05/27 05:17:35;;;;;;;12.03;6.60;;;;;;;20.59;100.00;63003.22;5092867;28;20260;-74
2022/05/27 05:20:02;;;;;;;11.60;7.13;;;;;;;21.12;100.00;63064.69;5092910;28;20618;-75
2022/05/27 05:22:29;;;;;;;10.90;7.37;;;;;;;20.45;100.00;62990.13;5092978;28;20280;-73
2022/05/27 05:24:55;;;;;;;14.77;7.93;;;;;;;21.44;100.00;63094.13;5095382;28;20222;-73
2022/05/27 05:27:25;;;;;;;10.07;6.83;;;;;;;21.44;100.00;63094.13;5096186;28;20264;-74
2022/05/27 05:29:53;;;;;;;14.20;7.07;;;;;;;21.60;100.00;63106.81;5092994;28;20328;-73
2022/05/27 05:32:21;;;;;;;19.23;7.13;;;;;;;21.93;100.00;63147.22;5092761;28;20204;-73
2022/05/27 05:34:49;;;;;;;13.30;6.57;;;;;;;21.45;100.00;63095.75;5092677;28;20299;-73
2022/05/27 05:37:17;;;;;;;9.93;6.03;;;;;;;20.79;100.00;63024.31;5074535;28;20253;-74
2022/05/27 05:39:44;;;;;;;11.13;6.23;;;;;;;21.75;100.00;63128.25;5092731;28;20196;-72
2022/05/27 05:42:11;;;;;;;9.67;5.97;;;;;;;22.06;100.00;63163.88;5092685;28;20301;-73
2022/05/27 05:44:39;;;;;;;8.87;6.57;;;;;;;22.28;100.00;63187.72;5092378;28;20196;-75
2022/05/27 05:47:06;;;;;;;14.63;6.80;;;;;;;22.36;100.00;63193.78;5092232;28;20666;-74
2022/05/27 05:49:33;;;;;;;11.17;6.30;;;;;;;22.35;100.00;63192.16;5092549;28;20290;-73
2022/05/27 05:52:02;;;;;;;17.20;6.20;;;;;;;22.00;100.00;63157.38;5092527;28;20608;-76
2022/05/27 05:54:31;;;;;;;10.83;6.40;;;;;;;22.86;100.00;63247.44;5092131;28;20618;-74
2022/05/27 05:57:01;;;;;;;13.60;6.07;;;;;;;22.31;100.00;63193.56;5091958;28;20195;-74
2022/05/27 05:59:30;;;;;;;12.50;6.27;;;;;;;23.13;100.00;63273.56;5092220;28;20745;-75
2022/05/27 06:01:58;;;;;;;8.80;5.23;;;;;;;23.09;100.00;63272.38;5092013;28;20201;-74
2022/05/27 06:04:25;;;;;;;12.67;6.10;;;;;;;22.80;100.00;63240.41;5092317;28;20211;-73
2022/05/27 06:06:53;;;;;;;12.60;6.20;;;;;;;22.98;100.00;63263.03;5092118;28;20234;-76
2022/05/27 06:09:25;;;;;;;9.20;5.90;;;;;;;23.24;100.00;63290.69;5092184;28;20204;-75
2022/05/27 06:11:53;;;;;;;10.93;5.93;;;;;;;23.36;100.00;63301.13;5091625;28;20200;-74
2022/05/27 06:14:23;;;;;;;14.93;6.40;;;;;;;23.45;100.00;63311.44;5091656;28;20703;-73
2022/05/27 06:16:50;;;;;;;12.03;6.20;;;;;;;23.47;100.00;63307.84;5092138;28;20203;-72
2022/05/27 06:19:20;;;;;;;9.70;5.40;;;;;;;23.88;100.00;63356.97;5091913;28;20769;-73
2022/05/27 06:21:48;;;;;;;11.47;5.00;;;;;;;23.96;100.00;63366.22;5091820;28;20191;-75
2022/05/27 06:24:16;;;;;;;12.27;5.07;;;;;;;24.00;100.00;63372.59;5091977;28;20264;-74
2022/05/27 06:26:44;;;;;;;11.00;5.03;;;;;;;23.20;100.00;63284.28;5091505;28;20610;-74
2022/05/27 06:34:40;;;;;;;11.53;5.00;;;;;;;24.36;100.00;63416.34;5091661;28;20259;-74
2022/05/27 06:37:11;;;;;;;12.93;5.27;;;;;;;24.24;100.00;63394.00;5073455;28;20220;-75
2022/05/27 06:39:40;;;;;;;11.43;4.97;;;;;;;24.88;100.00;63465.00;5091587;28;20662;-75
2022/05/27 06:42:10;;;;;;;6.93;4.67;;;;;;;24.55;100.00;63429.69;5091834;28;20247;-75
2022/05/27 06:44:37;;;;;;;11.80;4.83;;;;;;;25.22;100.00;63504.53;5091931;28;20266;-76
2022/05/27 06:47:05;;;;;;;15.30;5.10;;;;;;;25.34;100.00;63519.63;5091133;28;20199;-74
2022/05/27 06:49:33;;;;;;;13.30;5.40;;;;;;;25.72;100.00;63556.25;5091410;28;20223;-76
2022/05/27 06:52:03;;;;;;;15.30;4.90;;;;;;;25.15;100.00;63494.34;5091536;28;20661;-75
2022/05/27 06:54:30;;;;;;;7.47;5.03;;;;;;;25.41;100.00;63527.81;5091095;28;20228;-75
2022/05/27 06:56:57;;;;;;;10.67;5.67;;;;;;;25.27;100.00;63512.56;5091545;28;20230;-74
2022/05/27 06:59:26;;;;;;;8.40;4.57;;;;;;;25.31;100.00;63516.38;5091390;28;20238;-75
2022/05/27 07:01:54;;;;;;;8.37;4.10;;;;;;;25.46;100.00;63528.00;5073228;28;20206;-72
2022/05/27 07:04:23;;;;;;;11.50;4.73;;;;;;;25.34;100.00;63520.16;5091002;28;20202;-74
2022/05/27 07:06:49;;;;;;;13.17;4.20;;;;;;;25.58;100.00;63545.72;5092732;28;20206;-74
2022/05/27 07:09:21;;;;;;;11.00;4.23;;;;;;;25.91;100.00;63576.91;5095337;28;20225;-73
2022/05/27 07:11:52;;;;;;;7.87;3.87;;;;;;;26.25;100.00;63612.78;5095442;28;20206;-74
2022/05/27 07:14:19;;;;;;;6.90;4.63;;;;;;;26.04;100.00;63590.47;5095183;28;20702;-73
2022/05/27 07:16:48;;;;;;;9.77;4.57;;;;;;;25.91;100.00;63571.13;5095136;28;20294;-73
2022/05/27 07:19:19;;;;;;;9.40;3.93;;;;;;;26.36;100.00;63616.91;5095207;28;20655;-74
2022/05/27 07:21:49;;;;;;;10.17;4.53;;;;;;;26.54;100.00;63641.72;5095510;28;20235;-74
2022/05/27 07:24:19;;;;;;;9.90;3.80;;;;;;;26.78;100.00;63665.22;5095728;28;20210;-74
2022/05/27 07:26:48;;;;;;;8.07;3.87;;;;;;;26.84;100.00;63676.97;5099286;28;20269;-75
2022/05/27 07:29:15;;;;;;;12.27;3.40;;;;;;;26.95;100.00;63688.91;5076681;28;20287;-75
2022/05/27 07:31:44;;;;;;;12.60;5.13;;;;;;;26.47;100.00;63634.09;5094894;28;20733;-75
2022/05/27 07:34:12;;;;;;;7.87;4.23;;;;;;;26.53;100.00;63643.78;5095156;28;20724;-75
2022/05/27 07:36:39;;;;;;;8.83;4.30;;;;;;;25.94;100.00;63579.63;5094262;28;20222;-74
2022/05/27 07:39:06;;;;;;;11.93;3.80;;;;;;;26.24;100.00;63612.25;5094902;28;20325;-74
2022/05/27 07:41:35;;;;;;;8.93;4.10;;;;;;;26.51;100.00;63641.06;5094853;28;20256;-75
2022/05/27 07:44:03;;;;;;;11.60;3.87;;;;;;;26.71;100.00;63660.22;5094546;28;20254;-76
2022/05/27 07:46:32;;;;;;;8.70;4.37;;;;;;;26.59;100.00;63649.75;5094699;28;20670;-74
2022/05/27 07:48:59;;;;;;;14.20;4.80;;;;;;;26.36;100.00;63625.28;5094709;28;20201;-75
2022/05/27 07:51:28;;;;;;;5.93;3.60;;;;;;;25.98;100.00;63584.50;5094507;28;20229;-74
2022/05/27 07:53:55;;;;;;;6.90;3.50;;;;;;;25.81;100.00;63566.03;5094054;28;20238;-75
2022/05/27 07:56:22;;;;;;;9.83;3.93;;;;;;;26.27;100.00;63609.75;5094355;28;20633;-74
2022/05/27 07:58:50;;;;;;;9.03;3.87;;;;;;;26.37;100.00;63625.84;5094998;28;20206;-73
2022/05/27 08:01:17;;;;;;;10.07;4.20;;;;;;;25.93;100.00;63575.94;5094580;28;20238;-76
2022/05/27 08:03:44;;;;;;;10.13;3.63;;;;;;;26.23;100.00;63613.22;5093977;28;20211;-74
2022/05/27 08:06:13;;;;;;;8.77;3.70;;;;;;;26.28;100.00;63616.06;5094219;28;20192;-74
2022/05/27 08:08:40;;;;;;;9.23;3.67;;;;;;;26.58;100.00;63649.19;5094149;28;20222;-76
2022/05/27 08:11:08;;;;;;;6.80;3.87;;;;;;;26.51;100.00;63641.06;5094168;28;20199;-74
2022/05/27 08:13:36;;;;;;;8.63;3.33;;;;;;;26.87;100.00;63679.66;5094076;28;20279;-75
2022/05/27 08:16:06;;;;;;;9.03;3.60;;;;;;;27.09;100.00;63704.16;5094036;28;20686;-76
2022/05/27 08:18:35;;;;;;;13.53;3.90;;;;;;;27.49;100.00;63747.13;5093432;28;20207;-74
2022/05/27 08:21:03;;;;;;;12.27;3.60;;;;;;;27.87;100.00;63788.50;5093946;28;20655;-74
2022/05/27 08:23:29;;;;;;;9.80;3.60;;;;;;;27.89;100.00;63784.91;5093709;28;20203;-74
2022/05/27 08:25:58;;;;;;;6.73;3.33;;;;;;;28.24;100.00;63828.25;5093961;28;20659;-74
2022/05/27 08:28:26;;;;;;;7.57;3.20;;;;;;;27.50;100.00;63748.78;5094194;28;20207;-72
2022/05/27 08:30:55;;;;;;;6.43;3.40;;;;;;;27.71;100.00;63770.56;5094139;28;20195;-73
2022/05/27 08:38:00;;;;;;;7.27;3.30;;;;;;;28.02;100.00;63799.06;5075872;28;20206;-73
2022/05/27 08:39:04;;;;;;;9.70;3.53;;;;;;;28.72;100.00;63877.38;5093917;28;20316;-74
2022/05/27 08:41:45;;;;;;;15.00;4.20;;;;;;;28.81;100.00;63890.38;5093504;28;20273;-74
2022/05/27 08:44:23;;;;;;;8.67;3.80;;;;;;;28.63;100.00;63870.75;5093900;28;20636;-73
2022/05/27 08:47:01;;;;;;;7.93;3.37;;;;;;;28.88;100.00;63897.97;5093978;28;20200;-74
2022/05/27 08:49:34;;;;;;;7.10;3.70;;;;;;;29.06;100.00;63912.34;5093659;28;20203;-74
2022/05/27 08:52:07;;;;;;;8.20;4.20;;;;;;;29.39;100.00;63953.03;5093795;28;20254;-73
2022/05/27 08:54:39;;;;;;;8.47;3.67;;;;;;;29.43;100.00;63957.41;5093077;28;20281;-76
2022/05/27 08:59:56;;;;;;;8.60;4.17;;;;;;;29.15;100.00;63921.63;5093488;28;20290;-74
2022/05/27 09:02:30;;;;;;;8.00;4.13;;;;;;;29.01;100.00;63912.16;5093578;28;20637;-75
2022/05/27 09:05:15;;;;;;;8.37;4.47;;;;;;;29.24;100.00;63936.16;5093438;28;20195;-74
2022/05/27 09:07:49;;;;;;;11.27;4.60;;;;;;;28.82;100.00;63891.44;5093008;28;20739;-75
2022/05/27 09:10:20;;;;;;;6.80;3.80;;;;;;;28.63;100.00;63876.00;5093053;28;20206;-74
2022/05/27 09:13:00;;;;;;;7.80;3.83;;;;;;;29.08;100.00;63917.16;5093025;28;20256;-74
2022/05/27 09:15:40;;;;;;;13.53;4.10;;;;;;;29.48;100.00;63962.31;5092753;28;20280;-72
2022/05/27 09:18:14;;;;;;;9.53;4.17;;;;;;;29.97;100.00;64015.72;5093107;28;20260;-75
2022/05/27 09:20:58;;;;;;;8.87;4.20;;;;;;;29.91;100.00;64011.81;5092946;28;20196;-73
2022/05/27 09:24:04;;;;;;;7.33;3.97;;;;;;;29.96;100.00;64015.19;5074748;28;20607;-75
2022/05/27 09:26:38;;;;;;;13.00;4.20;;;;;;;30.11;100.00;64031.00;5095426;28;20205;-73
2022/05/27 09:29:23;;;;;;;11.43;4.03;;;;;;;30.17;100.00;64034.91;5093521;28;20579;-76
2022/05/27 09:31:54;;;;;;;11.00;4.30;;;;;;;29.89;100.00;64004.38;5092310;28;20196;-78
2022/05/27 09:34:23;;;;;;;11.17;3.80;;;;;;;29.71;100.00;63984.75;5092388;28;20718;-74
2022/05/27 09:37:00;;;;;;;12.80;3.80;;;;;;;29.80;100.00;63997.22;5092284;28;20284;-75
2022/05/27 09:39:26;;;;;;;11.27;4.97;;;;;;;29.93;100.00;64011.94;5092722;28;20200;-77
2022/05/27 09:42:01;;;;;;;8.97;4.53;;;;;;;30.03;100.00;64022.81;5092657;28;20286;-74
2022/05/27 09:44:35;;;;;;;10.77;4.17;;;;;;;29.66;100.00;63987.19;5092229;28;20678;-74
2022/05/27 09:47:03;;;;;;;11.67;4.37;;;;;;;30.30;100.00;64051.19;5092611;28;20279;-74
2022/05/27 09:49:30;;;;;;;7.30;4.30;;;;;;;30.28;100.00;64044.28;5092047;28;20659;-74
2022/05/27 09:51:59;;;;;;;8.83;4.23;;;;;;;29.88;100.00;64000.69;5092059;28;20200;-73
2022/05/27 09:54:36;;;;;;;13.33;4.43;;;;;;;30.09;100.00;64028.28;5092143;28;20228;-73
2022/05/27 09:57:16;;;;;;;11.47;4.27;;;;;;;30.74;100.00;64099.75;5092362;28;20556;-74
2022/05/27 09:59:44;;;;;;;6.97;3.57;;;;;;;30.80;100.00;64103.66;5091930;28;20202;-73
2022/05/27 10:02:20;;;;;;;11.93;4.30;;;;;;;31.23;100.00;64152.16;5092268;28;20204;-74
2022/05/27 10:04:56;;;;;;;10.50;4.20;;;;;;;31.46;100.00;64179.91;5092453;28;20203;-74
2022/05/27 10:07:51;;;;;;;9.67;3.60;;;;;;;31.50;100.00;64181.63;5091971;28;20198;-74
2022/05/27 10:10:23;;;;;;;9.97;4.33;;;;;;;31.63;100.00;64190.56;5092133;28;20195;-75
2022/05/27 10:12:50;;;;;;;9.17;4.50;;;;;;;31.58;100.00;64190.38;5092402;28;20207;-75
2022/05/27 10:15:29;;;;;;;8.77;4.30;;;;;;;30.84;100.00;64110.13;5092208;28;20298;-75
2022/05/27 10:18:12;;;;;;;10.77;4.03;;;;;;;30.76;100.00;64099.31;5091868;28;20581;-73
2022/05/27 10:20:39;;;;;;;9.47;4.07;;;;;;;30.52;100.00;64075.75;5092037;28;20212;-77
2022/05/27 10:23:10;;;;;;;15.13;3.87;;;;;;;31.46;100.00;64177.81;5091627;28;20687;-75
2022/05/27 10:25:39;;;;;;;13.73;3.50;;;;;;;31.59;100.00;64191.47;5091683;28;20417;-74
2022/05/27 10:28:09;;;;;;;15.07;3.97;;;;;;;31.89;100.00;64223.69;5091773;28;20221;-74
2022/05/27 10:30:41;;;;;;;10.43;4.17;;;;;;;31.93;100.00;64228.06;5091931;28;20207;-75
2022/05/27 10:33:18;;;;;;;9.70;3.90;;;;;;;31.94;99.95;64229.72;5092024;28;20203;-75
2022/05/27 10:35:47;;;;;;;9.70;3.50;;;;;;;31.78;100.00;64212.22;5090974;28;20235;-73
2022/05/27 10:38:31;;;;;;;14.87;3.63;;;;;;;31.78;100.00;64212.22;5091814;28;20230;-74
2022/05/27 10:41:05;;;;;;;10.63;3.70;;;;;;;31.99;100.00;64229.91;5091239;28;20214;-74
2022/05/27 10:43:54;;;;;;;9.60;3.97;;;;;;;32.46;95.46;64285.44;5091870;28;20267;-75
2022/05/27 10:46:24;;;;;;;19.13;3.83;;;;;;;31.91;89.74;64229.06;5091625;28;20195;-74
2022/05/27 10:49:07;;;;;;;7.13;3.60;;;;;;;32.59;93.54;64299.63;5091453;28;20196;-74
2022/05/27 10:51:45;;;;;;;14.00;3.87;;;;;;;32.79;89.05;64321.50;5088858;28;20195;-73
2022/05/27 10:54:24;;;;;;;12.90;3.80;;;;;;;32.37;81.90;64274.03;5091285;28;20196;-75
2022/05/27 11:03:14;;;;;;;10.87;3.43;;;;;;;32.77;73.50;64322.50;5091611;28;20203;-75
2022/05/27 11:05:57;;;;;;;10.13;3.50;;;;;;;32.75;73.43;64311.84;5091662;28;20386;-75
2022/05/27 11:08:26;;;;;;;12.57;3.60;;;;;;;32.78;70.98;64320.41;5091632;28;20283;-74
2022/05/27 11:11:10;;;;;;;9.33;2.77;;;;;;;32.61;70.96;64299.75;5090795;28;20600;-74
2022/05/27 11:16:54;;;;;;;9.07;3.47;;;;;;;32.79;73.04;64324.69;5091049;28;20239;-75
2022/05/27 11:19:38;;;;;;;14.93;3.83;;;;;;;33.06;73.94;64348.41;5091150;28;20203;-74
2022/05/27 11:22:18;;;;;;;13.13;3.77;;;;;;;32.84;70.52;64327.50;5091112;28;20747;-76
2022/05/27 11:25:27;;;;;;;5.50;3.53;;;;;;;33.22;71.48;64365.88;5091341;28;20239;-74
2022/05/27 11:28:32;;;;;;;8.97;3.90;;;;;;;33.15;76.33;64361.41;5093458;28;20192;-73
2022/05/27 11:31:13;;;;;;;7.73;3.23;;;;;;;33.25;72.81;64374.44;5081443;28;20216;-75
2022/05/27 11:33:44;;;;;;;16.77;4.40;;;;;;;33.48;69.26;64393.75;5091840;28;20249;-75
2022/05/27 11:36:39;;;;;;;10.80;3.90;;;;;;;33.47;69.25;64398.50;5091339;28;20661;-74
2022/05/27 11:39:29;;;;;;;11.57;3.50;;;;;;;33.40;71.25;64388.22;5091109;28;20192;-75
2022/05/27 11:42:06;;;;;;;12.13;3.50;;;;;;;32.67;70.12;64313.66;5091617;28;20253;-73
2022/05/27 11:44:42;;;;;;;8.30;3.63;;;;;;;32.87;72.59;64333.44;5091012;28;20610;-74
2022/05/27 11:47:43;;;;;;;10.33;3.90;;;;;;;32.78;74.23;64323.59;5091829;28;20210;-74
2022/05/27 11:50:23;;;;;;;7.20;3.70;;;;;;;32.83;73.86;64329.06;5091673;28;20205;-74
2022/05/27 11:53:02;;;;;;;13.60;3.90;;;;;;;32.86;72.49;64329.16;5091205;28;20195;-73
2022/05/27 11:55:50;;;;;;;8.90;3.70;;;;;;;33.23;75.38;64367.53;5094704;28;20277;-76
2022/05/27 11:58:22;;;;;;;7.23;3.80;;;;;;;33.27;70.29;64373.97;5095346;28;20205;-75
2022/05/27 12:00:56;;;;;;;10.73;3.93;;;;;;;33.55;74.62;64404.06;5094450;28;20271;-73
2022/05/27 12:03:34;;;;;;;8.57;3.97;;;;;;;33.86;72.08;64438.53;5094270;28;20253;-74
2022/05/27 12:06:08;;;;;;;12.23;4.33;;;;;;;33.53;69.38;64401.88;5094538;28;20637;-73
2022/05/27 12:08:41;;;;;;;13.97;4.10;;;;;;;33.72;67.15;64420.56;5094234;28;20203;-74
2022/05/27 12:11:16;;;;;;;7.37;3.83;;;;;;;33.74;69.83;64422.22;5094823;28;20206;-74
2022/05/27 12:13:46;;;;;;;9.20;3.40;;;;;;;33.87;69.55;64439.06;5094139;28;20264;-74
2022/05/27 12:16:16;;;;;;;8.70;3.97;;;;;;;33.93;70.83;64446.19;5094054;28;20250;-75